• Join FlightAware (Why Join?)
  • Login
  • US Flag 
11:51AM EST


 

Airport Tracker/Info


-or-


 

Live Flight TrackerFlight Track Log ✈ N1560T ✈ 05-Sep-2013 ✈ KLSE - KFCM

Flight Track Log - Related Links

Times and Time Zones

All times are in EDT time to prevent confusion due to time zone crossing. See the N1560T flight status page for this flight to view local times or setup timezone preferences in your user account.

Time Position Orientation Groundspeed Altitude Reporting Facility
EDT Latitude Longitude Course Direction KTS MPH feet Rate Location/Type
09:10AM 43.9269 -91.2611 North 150 173 2,600  Level Minneapolis Center
09:11AM 43.9733 -91.2628 359° North 160 184 4,400 1,440 Climbing Minneapolis Center
09:12AM 44.0069 -91.2619 North 153 176 5,600 1,380 Climbing Minneapolis Center
09:13AM 44.0547 -91.2817 343° North 153 176 7,300 1,200 Climbing Minneapolis Center
09:14AM 44.0654 -91.4667 North  Level FlightAware Approximate
09:14AM 44.0956 -91.3106 333° Northwest 158 182 8,100  Level Minneapolis Center
09:15AM 44.1198 -91.4667 North  Level FlightAware Approximate
09:15AM 44.1417 -91.3567 324° Northwest 208 239 8,000  Level Minneapolis Center
09:16AM 44.1741 -91.4667 North  Level FlightAware Approximate
09:16AM 44.1586 -91.4383 286° West 213 245 8,100  Level Minneapolis Center
09:17AM 44.1747 -91.5128 287° West 210 242 8,000 -60 Descending Minneapolis Center
09:18AM 44.1978 -91.5911 292° West 204 235 8,000  Level Minneapolis Center
09:20AM 44.2250 -91.6664 297° West 210 242 8,000  Level Minneapolis Center
09:21AM 44.2458 -91.7483 290° West 209 241 8,000  Level Minneapolis Center
09:22AM 44.2708 -91.8428 290° West 209 241 8,000 -240 Level Minneapolis Center
09:23AM 44.2917 -91.9183 291° West 212 244 7,500 -600 Descending Minneapolis Center
09:24AM 44.3175 -92.0167 290° West 218 251 6,700 -780 Descending Minneapolis Center
09:25AM 44.3353 -92.0817 291° West 218 251 6,000 -720 Descending Minneapolis Center
09:26AM 44.3589 -92.1658 291° West 220 253 5,300 -780 Descending Minneapolis Center
09:27AM 44.3833 -92.2603 290° West 226 260 4,400 -660 Descending Minneapolis Center
09:28AM 44.4081 -92.3461 292° West 219 252 4,000 -180 Descending Minneapolis Center
09:29AM 44.4272 -92.4158 291° West 200 230 4,100  Climbing Minneapolis Center
09:30AM 44.4472 -92.4892 291° West 201 231 4,000 -60 Descending Minneapolis Center
09:31AM 44.4694 -92.5708 291° West 201 231 4,000  Level Minneapolis Center
09:32AM 44.4881 -92.6517 288° West 203 234 4,000  Level Minneapolis Center
09:34AM 44.5133 -92.7403 292° West 205 236 4,000  Level Minneapolis Center
09:35AM 44.5375 -92.8281 291° West 203 234 4,000  Level Minneapolis Center
09:36AM 44.5578 -92.9019 291° West 203 234 4,000 -180 Level Minneapolis Center
09:37AM 44.5772 -92.9817 289° West 202 232 3,700 -480 Descending Minneapolis Center
09:38AM 44.5972 -93.0553 291° West 213 245 3,100 -420 Descending Minneapolis Center
09:39AM 44.6178 -93.1322 291° West 210 242 2,900 -60 Descending Minneapolis Center
09:40AM 44.6419 -93.2000 297° West 202 232 3,000  Climbing Minneapolis Center
09:41AM 44.6811 -93.2542 315° West 197 227 3,000 -120 Level Minneapolis Center
09:42AM 44.7189 -93.3103 313° West 193 222 2,800 -240 Descending Minneapolis Center
09:43AM 44.7594 -93.3661 316° Northwest 198 228 2,500 -360 Descending Minneapolis Center
09:44AM 44.8089 -93.3864 344° North 151 174 2,000 -720 Descending Minneapolis Center
09:45AM 44.8250 -93.4447 291° West 137 158 1,100 -900 Descending Minneapolis Center
09:47AM 44.8167 -93.4500 305° West  Level FlightAware Approximate
09:54AM 44.8275 -93.4586 305° West  Level Estimated